Time;durP1;ratioP1;P1;durP2;ratioP2;P2;SDS_P1;SDS_P2;PMS_P1;PMS_P2;Temp;Humidity;BMP_temperature;BMP_pressure;BME280_temperature;BME280_humidity;BME280_pressure;Samples;Min_cycle;Max_cycle;Signal;HPM_P1;HPM_P2
2021/04/13 00:02:46;;;;;;;5.05;2.42;;;;;;;10.69;49.93;101694.91;4987478;28;20093;-72
2021/04/13 00:05:21;;;;;;;6.43;2.75;;;;;;;10.72;49.55;101689.72;4972087;28;20500;-72
2021/04/13 00:07:48;;;;;;;6.43;2.58;;;;;;;10.65;49.57;101685.09;4990752;28;20069;-72
2021/04/13 00:10:19;;;;;;;4.13;1.98;;;;;;;10.65;50.16;101687.72;4991019;28;20046;-72
2021/04/13 00:12:48;;;;;;;6.40;2.60;;;;;;;10.74;49.63;101686.28;4990650;28;20122;-72
2021/04/13 00:15:19;;;;;;;4.32;2.10;;;;;;;10.83;49.50;101690.03;4990958;28;20073;-72
2021/04/13 00:17:47;;;;;;;7.25;2.40;;;;;;;10.85;49.87;101680.41;4990487;28;20639;-72
2021/04/13 00:20:21;;;;;;;6.88;2.72;;;;;;;10.84;50.04;101674.22;4970423;28;20050;-72
2021/04/13 00:22:49;;;;;;;10.93;6.65;;;;;;;10.73;50.31;101679.19;4973695;28;20038;-72
2021/04/13 00:25:25;;;;;;;8.40;4.20;;;;;;;10.70;50.30;101681.72;4971798;28;20125;-72
2021/04/13 00:27:54;;;;;;;10.48;5.50;;;;;;;10.63;50.58;101682.41;4979421;28;20081;-71
2021/04/13 00:30:24;;;;;;;11.02;4.80;;;;;;;10.39;51.57;101679.03;4973335;28;20134;-71
2021/04/13 00:32:58;;;;;;;9.50;4.28;;;;;;;10.35;51.51;101677.16;4990055;28;20046;-71
2021/04/13 00:35:32;;;;;;;8.18;4.28;;;;;;;10.32;51.72;101675.28;4988626;28;20523;-72
2021/04/13 00:38:22;;;;;;;9.50;3.92;;;;;;;10.45;51.95;101667.75;4972363;28;20047;-72
2021/04/13 00:40:52;;;;;;;7.57;4.03;;;;;;;10.46;51.81;101673.09;4985710;28;20034;-72
2021/04/13 00:43:24;;;;;;;9.00;4.40;;;;;;;10.33;52.16;101669.19;4975777;28;20041;-72
2021/04/13 00:45:52;;;;;;;7.65;4.13;;;;;;;10.21;52.11;101671.44;4973213;28;20392;-71
2021/04/13 00:48:28;;;;;;;7.72;4.07;;;;;;;10.17;52.49;101666.91;4984647;28;20126;-72
2021/04/13 00:51:02;;;;;;;20.83;9.80;;;;;;;10.09;52.83;101664.84;4984083;28;20066;-72
2021/04/13 00:53:32;;;;;;;9.90;3.72;;;;;;;10.15;52.58;101665.94;4972472;28;20050;-71
2021/04/13 00:56:02;;;;;;;6.75;3.05;;;;;;;10.24;52.55;101655.69;4985829;28;20041;-71
2021/04/13 00:58:34;;;;;;;7.13;3.58;;;;;;;10.33;52.36;101657.72;4988651;28;20038;-72
2021/04/13 01:01:08;;;;;;;6.05;2.70;;;;;;;10.18;53.00;101644.94;4988191;28;20053;-72
2021/04/13 01:03:35;;;;;;;;;;;;;;;10.10;53.19;101653.44;4983204;28;20089;-72
2021/04/13 01:06:04;;;;;;;5.45;2.42;;;;;;;10.10;53.38;101646.44;4961217;28;19925;-71
2021/04/13 01:08:35;;;;;;;5.70;2.60;;;;;;;10.12;53.70;101647.34;4989877;28;20046;-72
2021/04/13 01:11:12;;;;;;;5.00;2.78;;;;;;;10.07;53.86;101641.03;4990398;28;20038;-71
2021/04/13 01:13:47;;;;;;;8.02;3.65;;;;;;;10.12;53.78;101644.72;4988255;28;20053;-72
2021/04/13 01:16:16;;;;;;;6.07;3.15;;;;;;;10.13;54.07;101633.31;4990007;28;20042;-72
2021/04/13 01:18:49;;;;;;;12.10;5.65;;;;;;;10.07;54.18;101632.22;4981197;28;20051;-72
2021/04/13 01:21:30;;;;;;;7.28;3.50;;;;;;;10.05;54.21;101645.38;4986587;28;20034;-72
2021/04/13 01:24:08;;;;;;;6.65;3.42;;;;;;;10.07;54.35;101645.41;4989195;28;20055;-72
2021/04/13 01:26:37;;;;;;;7.60;3.53;;;;;;;10.00;54.86;101636.41;4974237;28;20050;-72
2021/04/13 01:29:06;;;;;;;8.98;4.05;;;;;;;9.97;54.98;101637.22;4988621;28;20077;-72
2021/04/13 01:31:53;;;;;;;8.40;4.60;;;;;;;9.96;54.98;101638.06;4977886;28;20058;-72
2021/04/13 01:34:25;;;;;;;9.80;4.97;;;;;;;9.94;55.05;101636.22;4983938;28;20569;-71
2021/04/13 01:37:26;;;;;;;8.13;4.82;;;;;;;9.97;55.21;101639.88;4989069;28;20049;-71
2021/04/13 01:39:57;;;;;;;10.35;6.88;;;;;;;9.89;55.06;101637.81;4973410;28;20040;-72
2021/04/13 01:42:26;;;;;;;9.98;6.05;;;;;;;9.97;55.24;101638.97;4970975;28;20042;-72
2021/04/13 01:44:59;;;;;;;11.15;5.40;;;;;;;9.98;55.28;101638.09;4987682;28;20053;-72
2021/04/13 01:47:27;;;;;;;8.15;4.70;;;;;;;9.90;55.67;101639.63;4988197;28;20463;-72
2021/04/13 01:49:57;;;;;;;4.88;3.10;;;;;;;9.87;55.67;101640.41;4988445;28;20064;-72
2021/04/13 01:52:28;;;;;;;6.93;4.30;;;;;;;9.83;55.89;101641.16;4971546;28;20058;-72
2021/04/13 01:54:57;;;;;;;10.40;4.45;;;;;;;9.78;55.97;101644.50;4981341;28;20073;-72
2021/04/13 01:57:35;;;;;;;8.48;4.15;;;;;;;9.82;56.14;101635.84;4970603;28;20086;-72
2021/04/13 02:00:10;;;;;;;5.93;3.08;;;;;;;9.84;56.45;101644.69;4989030;28;20416;-72
2021/04/13 02:02:45;;;;;;;8.20;4.25;;;;;;;9.75;56.53;101639.09;4989238;28;20046;-72
2021/04/13 02:05:15;;;;;;;9.00;4.20;;;;;;;9.72;56.40;101646.91;4988099;28;20035;-72
2021/04/13 02:07:54;;;;;;;8.32;3.60;;;;;;;9.76;56.36;101647.06;4988743;28;20097;-72
2021/04/13 02:10:27;;;;;;;10.18;3.95;;;;;;;9.78;56.17;101648.00;4989220;28;20053;-72
2021/04/13 02:12:59;;;;;;;7.37;3.57;;;;;;;9.77;56.14;101640.97;4988526;28;20054;-71
2021/04/13 02:15:46;;;;;;;5.70;2.60;;;;;;;9.82;56.12;101641.09;4988951;28;20436;-72
2021/04/13 02:18:20;;;;;;;7.70;3.97;;;;;;;9.81;56.01;101639.31;4988244;28;20044;-72
2021/04/13 02:20:49;;;;;;;12.77;5.20;;;;;;;9.80;56.32;101638.41;4988653;28;20527;-71
2021/04/13 02:23:25;;;;;;;8.07;3.47;;;;;;;9.80;56.41;101641.03;4972861;28;20051;-72
2021/04/13 02:25:53;;;;;;;11.55;5.60;;;;;;;9.79;56.14;101643.63;4971380;28;20145;-71
2021/04/13 02:28:22;;;;;;;9.15;4.25;;;;;;;9.74;56.25;101642.59;4981193;28;20031;-72
2021/04/13 02:30:53;;;;;;;24.30;11.45;;;;;;;9.65;56.66;101637.03;4972142;28;20042;-71
2021/04/13 02:33:28;;;;;;;17.25;8.25;;;;;;;9.58;57.14;101636.78;4987985;28;20117;-71
2021/04/13 02:35:57;;;;;;;12.23;5.90;;;;;;;9.52;57.56;101628.69;4988719;28;20122;-71
2021/04/13 02:38:28;;;;;;;9.60;4.88;;;;;;;9.57;57.59;101627.13;4983125;28;20049;-71
2021/04/13 02:41:01;;;;;;;11.13;5.53;;;;;;;9.52;57.71;101622.50;4988549;28;20125;-71
2021/04/13 02:43:32;;;;;;;8.82;3.97;;;;;;;9.55;57.77;101617.34;4988226;28;20046;-72
2021/04/13 02:46:06;;;;;;;6.82;3.70;;;;;;;9.50;57.78;101611.94;4971458;28;20047;-71
2021/04/13 02:48:41;;;;;;;8.20;4.18;;;;;;;9.44;57.77;101598.56;4984682;28;20039;-71
2021/04/13 02:51:11;;;;;;;7.65;3.80;;;;;;;9.42;58.00;101610.78;4988912;28;20448;-71
2021/04/13 02:53:42;;;;;;;6.45;3.50;;;;;;;9.45;57.71;101616.13;4986784;28;20043;-71
2021/04/13 02:56:14;;;;;;;6.90;3.42;;;;;;;9.45;58.08;101617.91;4971664;28;20071;-71
2021/04/13 02:58:45;;;;;;;6.60;3.47;;;;;;;9.47;58.20;101614.47;4988620;28;20113;-71
2021/04/13 03:01:15;;;;;;;11.35;7.55;;;;;;;9.58;57.87;101622.75;4984982;28;20448;-72
2021/04/13 03:03:44;;;;;;;10.88;7.50;;;;;;;9.49;57.89;101618.06;4988151;28;20062;-71
2021/04/13 03:06:12;;;;;;;17.52;9.45;;;;;;;9.45;58.21;101620.53;4988695;28;20381;-71
2021/04/13 03:08:42;;;;;;;11.15;5.53;;;;;;;9.43;58.26;101615.22;4984027;28;20062;-72
2021/04/13 03:11:15;;;;;;;7.97;4.65;;;;;;;9.41;58.72;101614.25;4980788;28;20504;-72
2021/04/13 03:13:43;;;;;;;9.23;4.53;;;;;;;9.46;58.46;101612.66;4991150;28;20039;-72
2021/04/13 03:16:14;;;;;;;4.72;2.70;;;;;;;9.51;58.22;101621.66;4987439;28;20030;-72
2021/04/13 03:18:45;;;;;;;4.95;2.53;;;;;;;9.56;57.68;101612.16;4992165;28;20399;-71
2021/04/13 03:21:16;;;;;;;4.63;2.63;;;;;;;9.62;57.02;101614.09;4987801;28;20122;-71
2021/04/13 03:23:44;;;;;;;7.97;3.40;;;;;;;9.69;56.42;101612.53;4974709;28;20559;-71
2021/04/13 03:26:17;;;;;;;9.65;4.28;;;;;;;9.64;56.73;101614.16;4992559;28;20035;-71
2021/04/13 03:28:48;;;;;;;7.15;2.72;;;;;;;9.54;57.17;101613.81;4991123;28;20053;-71
2021/04/13 03:31:19;;;;;;;8.95;3.75;;;;;;;9.49;57.52;101610.16;4991713;28;20046;-71
2021/04/13 03:33:48;;;;;;;8.20;3.67;;;;;;;9.43;57.34;101617.84;4991678;28;20149;-71
2021/04/13 03:36:20;;;;;;;11.48;4.95;;;;;;;9.45;57.39;101624.03;4978754;28;20043;-71
2021/04/13 03:38:53;;;;;;;6.63;2.97;;;;;;;9.41;57.38;101619.53;4973548;28;20045;-71
2021/04/13 03:41:21;;;;;;;5.65;2.60;;;;;;;9.34;57.42;101624.53;4976487;28;20045;-72
2021/04/13 03:43:55;;;;;;;6.10;3.25;;;;;;;9.40;57.10;101623.00;4984640;28;20129;-72
2021/04/13 03:46:26;;;;;;;6.22;3.05;;;;;;;9.41;57.01;101622.16;4990135;28;20129;-71
2021/04/13 03:48:54;;;;;;;5.55;2.45;;;;;;;9.43;56.63;101628.41;4985906;28;20133;-71
2021/04/13 03:51:31;;;;;;;6.20;3.00;;;;;;;9.50;56.67;101637.41;4986489;28;20555;-72
2021/04/13 03:53:58;;;;;;;9.15;3.95;;;;;;;9.51;56.68;101634.81;4991567;28;20034;-72
2021/04/13 03:56:28;;;;;;;10.25;5.18;;;;;;;9.53;56.48;101638.38;4991207;28;20038;-72
2021/04/13 03:58:58;;;;;;;11.18;5.25;;;;;;;9.49;56.71;101636.50;4991435;28;20132;-72
2021/04/13 04:01:30;;;;;;;7.47;3.30;;;;;;;9.59;56.50;101633.31;4988741;28;20047;-71
2021/04/13 04:03:59;;;;;;;14.20;6.93;;;;;;;9.73;56.41;101640.78;4981887;28;20037;-72
2021/04/13 04:06:41;;;;;;;13.07;4.88;;;;;;;9.89;56.37;101640.47;4959353;28;20583;-71
2021/04/13 04:09:16;;;;;;;10.25;4.35;;;;;;;9.98;56.11;101639.00;4987827;28;20057;-72
2021/04/13 04:11:45;;;;;;;10.32;3.72;;;;;;;10.08;56.03;101639.31;4973790;28;20057;-72
2021/04/13 04:14:18;;;;;;;7.40;3.05;;;;;;;10.15;55.82;101652.75;4987425;28;20121;-73
2021/04/13 04:16:46;;;;;;;9.97;3.27;;;;;;;10.26;55.68;101650.47;4976272;28;20056;-71
2021/04/13 04:19:17;;;;;;;10.48;3.67;;;;;;;10.40;55.83;101649.16;4986335;28;20064;-71
2021/04/13 04:21:47;;;;;;;12.93;4.30;;;;;;;10.48;55.75;101649.38;4982113;28;20396;-72
2021/04/13 04:24:29;;;;;;;10.57;4.15;;;;;;;10.68;56.04;101650.88;4990440;28;20122;-72
2021/04/13 04:26:59;;;;;;;16.23;10.52;;;;;;;10.84;55.68;101652.19;4985960;28;20045;-72
2021/04/13 04:29:41;;;;;;;29.95;19.75;;;;;;;11.06;55.75;101649.31;4986844;28;20048;-72
2021/04/13 04:32:15;;;;;;;13.65;8.35;;;;;;;11.23;55.42;101655.06;4963331;28;20066;-72
2021/04/13 04:35:01;;;;;;;9.53;6.63;;;;;;;11.38;54.91;101652.81;4975216;28;20035;-72
2021/04/13 04:37:32;;;;;;;10.10;5.22;;;;;;;11.47;54.83;101653.97;4983777;28;20043;-72
2021/04/13 04:40:57;;;;;;;7.93;4.43;;;;;;;11.68;54.48;101645.72;4981306;28;20054;-72
2021/04/13 04:43:57;;;;;;;9.50;5.07;;;;;;;11.84;54.26;101639.97;4980824;28;20122;-72
2021/04/13 04:46:36;;;;;;;6.78;3.20;;;;;;;11.99;53.75;101642.09;4929553;29;20141;-72
2021/04/13 04:49:07;;;;;;;8.75;3.72;;;;;;;12.09;53.47;101638.78;4981085;28;20031;-72
2021/04/13 04:51:34;;;;;;;7.07;4.38;;;;;;;12.17;53.25;101634.56;4990035;28;20117;-72
2021/04/13 04:54:02;;;;;;;5.15;3.28;;;;;;;12.29;53.13;101636.59;4984697;28;20101;-72
2021/04/13 04:56:29;;;;;;;4.78;3.05;;;;;;;12.43;53.29;101636.91;4972729;28;20046;-72
2021/04/13 04:58:57;;;;;;;6.47;3.50;;;;;;;12.59;52.97;101634.63;4972800;28;20069;-73
2021/04/13 05:01:24;;;;;;;10.18;4.40;;;;;;;12.81;52.79;101632.41;4979213;28;20039;-72
2021/04/13 05:03:51;;;;;;;6.65;3.60;;;;;;;13.01;52.88;101633.72;4989903;28;20057;-73
2021/04/13 05:06:19;;;;;;;7.78;3.50;;;;;;;13.26;52.55;101635.13;4986689;28;20056;-73
2021/04/13 05:08:47;;;;;;;3.80;2.28;;;;;;;13.44;52.47;101631.06;4985516;28;20129;-72
2021/04/13 05:11:14;;;;;;;4.55;1.70;;;;;;;13.71;51.87;101641.25;4988851;28;20101;-71
2021/04/13 05:13:41;;;;;;;4.00;1.52;;;;;;;13.94;51.04;101642.50;4980509;28;20038;-72
2021/04/13 05:16:08;;;;;;;4.75;1.88;;;;;;;14.13;50.34;101641.03;4990419;28;20121;-72
2021/04/13 05:18:36;;;;;;;2.05;1.55;;;;;;;14.34;49.66;101638.69;4980907;28;20129;-72
2021/04/13 05:21:04;;;;;;;3.92;1.80;;;;;;;14.57;48.88;101638.16;4989092;28;20073;-72
2021/04/13 05:23:33;;;;;;;2.63;1.50;;;;;;;14.72;48.18;101633.03;4989106;28;20046;-72
2021/04/13 05:26:00;;;;;;;4.20;2.00;;;;;;;14.87;47.62;101638.53;4990098;28;20070;-72
2021/04/13 05:28:27;;;;;;;3.38;1.60;;;;;;;15.10;47.03;101633.47;4989512;28;20142;-72
2021/04/13 05:30:55;;;;;;;6.15;2.15;;;;;;;15.26;46.63;101638.09;4989463;28;20035;-72
2021/04/13 05:33:24;;;;;;;4.88;2.15;;;;;;;15.48;46.42;101628.56;4987987;28;20038;-72
2021/04/13 05:35:51;;;;;;;3.78;2.33;;;;;;;15.72;45.62;101638.56;4976059;28;20047;-72
2021/04/13 05:38:23;;;;;;;6.05;2.00;;;;;;;15.97;44.85;101640.53;4975328;28;20030;-72
2021/04/13 05:40:52;;;;;;;3.47;1.85;;;;;;;16.14;43.98;101635.34;4982847;28;20046;-72
2021/04/13 05:43:20;;;;;;;4.28;2.35;;;;;;;16.38;43.87;101634.59;4969972;28;20050;-72
2021/04/13 05:45:49;;;;;;;5.82;2.30;;;;;;;16.53;43.80;101637.38;4988099;28;20121;-73
2021/04/13 05:48:19;;;;;;;4.22;2.35;;;;;;;16.74;43.60;101625.03;4974562;28;20034;-73
2021/04/13 05:50:47;;;;;;;4.53;2.33;;;;;;;16.97;42.74;101626.91;4979023;28;20499;-72
2021/04/13 05:53:15;;;;;;;3.85;2.20;;;;;;;17.22;41.88;101622.53;4986434;28;20062;-73
2021/04/13 05:55:42;;;;;;;3.55;1.90;;;;;;;17.43;40.96;101628.81;4988139;28;20066;-73
2021/04/13 05:58:15;;;;;;;3.35;1.80;;;;;;;17.59;40.93;101619.00;4989383;28;20038;-73
2021/04/13 06:00:42;;;;;;;8.20;3.47;;;;;;;17.81;40.97;101622.63;4980458;28;20050;-73
2021/04/13 06:03:12;;;;;;;7.75;4.35;;;;;;;18.02;40.95;101619.06;4987567;28;20502;-73
2021/04/13 06:05:40;;;;;;;5.90;2.10;;;;;;;18.20;40.70;101621.69;4985814;28;20042;-73
2021/04/13 06:08:07;;;;;;;3.40;1.88;;;;;;;18.41;40.48;101629.66;4989137;28;20039;-72
2021/04/13 06:10:34;;;;;;;5.05;1.98;;;;;;;18.58;40.27;101622.50;4988446;28;20106;-74
2021/04/13 06:13:02;;;;;;;4.57;2.20;;;;;;;18.68;40.26;101626.94;4988983;28;20097;-73
2021/04/13 06:15:31;;;;;;;3.80;2.03;;;;;;;18.94;40.26;101628.63;4988629;28;20123;-73
2021/04/13 06:17:59;;;;;;;3.20;2.05;;;;;;;19.17;39.90;101636.50;4978132;28;20447;-73
2021/04/13 06:20:27;;;;;;;4.32;2.15;;;;;;;19.40;39.38;101624.78;4971738;28;20038;-73
2021/04/13 06:22:56;;;;;;;3.78;2.40;;;;;;;19.61;39.15;101631.81;4984651;28;20457;-73
2021/04/13 06:25:26;;;;;;;4.60;2.50;;;;;;;19.83;39.01;101628.03;4979260;28;20566;-73
2021/04/13 06:27:53;;;;;;;6.68;3.50;;;;;;;20.04;38.54;101631.44;4978899;28;20069;-73
2021/04/13 06:30:24;;;;;;;6.80;3.13;;;;;;;20.27;37.63;101637.47;4986926;28;20040;-73
2021/04/13 06:32:52;;;;;;;7.00;2.72;;;;;;;20.41;37.44;101622.16;4988730;28;20129;-74
2021/04/13 06:35:20;;;;;;;5.97;3.00;;;;;;;20.62;36.72;101624.56;4979165;28;20042;-73
2021/04/13 06:37:50;;;;;;;6.03;2.40;;;;;;;20.75;36.49;101629.78;4987984;28;20126;-74
2021/04/13 06:40:34;;;;;;;4.50;3.08;;;;;;;20.93;35.72;101632.25;4987112;28;20037;-74
2021/04/13 06:43:12;;;;;;;5.05;2.30;;;;;;;20.83;35.77;101634.16;4988765;28;20395;-74
2021/04/13 06:45:51;;;;;;;9.48;2.42;;;;;;;21.00;36.18;101631.28;4986920;28;20042;-75
2021/04/13 06:48:43;;;;;;;5.70;2.45;;;;;;;21.23;35.43;101631.88;4960520;28;20047;-74
2021/04/13 06:51:20;;;;;;;5.20;2.28;;;;;;;21.36;35.38;101629.88;4987548;28;20045;-75
2021/04/13 06:54:01;;;;;;;7.45;2.70;;;;;;;21.55;34.97;101633.19;4973412;28;20034;-75
2021/04/13 06:56:51;;;;;;;7.28;4.07;;;;;;;21.70;34.38;101630.25;4984615;28;20137;-75
2021/04/13 06:59:48;;;;;;;10.85;6.63;;;;;;;21.83;33.88;101637.19;4988080;28;20042;-75
2021/04/13 07:02:20;;;;;;;10.15;6.45;;;;;;;21.90;34.22;101628.13;4957061;28;20049;-75
2021/04/13 07:04:56;;;;;;;12.45;6.80;;;;;;;22.02;33.42;101632.44;4988352;28;20050;-75
2021/04/13 07:07:29;;;;;;;12.30;7.13;;;;;;;21.99;32.94;101635.19;4990224;28;20062;-75
2021/04/13 07:10:12;;;;;;;17.20;10.45;;;;;;;22.10;33.87;101635.88;4992915;28;20500;-75
2021/04/13 07:12:44;;;;;;;15.82;8.80;;;;;;;22.17;34.41;101642.91;4988477;28;20133;-76
2021/04/13 07:15:16;;;;;;;15.85;10.18;;;;;;;22.13;34.81;101634.00;4988225;28;20058;-74
2021/04/13 07:17:48;;;;;;;16.88;11.52;;;;;;;22.22;35.13;101643.72;4976069;28;20042;-74
2021/04/13 07:20:21;;;;;;;15.25;9.85;;;;;;;22.22;35.03;101644.59;5003322;28;20129;-75
2021/04/13 07:22:54;;;;;;;20.13;12.18;;;;;;;22.29;34.73;101645.38;4990824;28;20219;-75
2021/04/13 07:25:23;;;;;;;17.80;11.73;;;;;;;22.33;34.67;101657.84;4988195;28;20073;-75
2021/04/13 07:27:54;;;;;;;23.52;13.82;;;;;;;22.41;34.50;101653.22;4968861;28;20062;-75
2021/04/13 07:30:27;;;;;;;21.15;12.80;;;;;;;22.37;33.99;101651.53;4970837;28;20031;-75
2021/04/13 07:32:55;;;;;;;50.28;29.85;;;;;;;22.41;34.15;101652.34;4986529;28;20046;-75
2021/04/13 07:35:27;;;;;;;27.55;16.17;;;;;;;22.51;34.19;101645.88;4988150;28;20038;-75
2021/04/13 07:37:56;;;;;;;28.45;14.90;;;;;;;22.38;34.06;101655.09;4984518;28;20580;-76
2021/04/13 07:40:28;;;;;;;16.23;9.73;;;;;;;22.46;33.96;101639.66;4980351;28;20065;-75
2021/04/13 07:42:59;;;;;;;14.65;9.77;;;;;;;22.54;34.19;101643.09;4987175;28;20117;-75
2021/04/13 07:45:32;;;;;;;37.85;21.05;;;;;;;22.66;34.18;101646.44;4969863;28;20093;-75
2021/04/13 07:48:32;;;;;;;21.92;13.60;;;;;;;22.64;33.36;101642.88;4989573;28;20058;-75
2021/04/13 07:51:17;;;;;;;17.15;10.15;;;;;;;22.77;33.88;101645.38;4979094;28;20048;-75
2021/04/13 07:54:16;;;;;;;17.38;9.48;;;;;;;22.96;33.14;101644.06;4975208;28;20046;-75
2021/04/13 07:56:47;;;;;;;23.85;13.63;;;;;;;22.86;33.43;101645.19;4983371;28;20509;-76
2021/04/13 07:59:25;;;;;;;19.95;11.80;;;;;;;22.90;33.52;101641.53;4982863;28;20118;-75
2021/04/13 08:01:53;;;;;;;13.57;8.27;;;;;;;22.90;33.43;101641.53;4985076;28;20085;-75
2021/04/13 08:04:22;;;;;;;14.70;8.43;;;;;;;23.00;33.02;101643.97;4978390;28;20042;-75
2021/04/13 08:06:56;;;;;;;14.15;7.07;;;;;;;22.99;32.37;101647.56;4984979;28;20137;-75
2021/04/13 08:09:36;;;;;;;10.32;5.20;;;;;;;23.04;32.85;101648.34;4977127;28;20038;-75
2021/04/13 08:12:17;;;;;;;7.32;4.05;;;;;;;23.02;33.13;101646.63;4987042;28;20113;-75
2021/04/13 08:14:46;;;;;;;6.55;3.70;;;;;;;23.00;33.26;101645.78;4988629;28;20062;-75
2021/04/13 08:17:17;;;;;;;11.05;5.05;;;;;;;23.07;34.63;101644.72;4990532;28;20121;-76
2021/04/13 08:19:45;;;;;;;7.65;3.33;;;;;;;23.09;34.89;101642.91;4975145;28;20047;-76
2021/04/13 08:22:18;;;;;;;8.95;4.43;;;;;;;22.99;34.90;101644.88;4987649;28;20042;-76
2021/04/13 08:24:46;;;;;;;7.95;4.65;;;;;;;22.95;35.61;101648.56;4990827;28;20053;-75
2021/04/13 08:27:45;;;;;;;8.27;4.15;;;;;;;22.93;36.45;101645.03;4974431;28;20049;-76
2021/04/13 08:30:42;;;;;;;7.00;3.60;;;;;;;22.79;36.81;101648.91;4987875;28;20050;-76
2021/04/13 08:33:23;;;;;;;5.93;3.40;;;;;;;22.89;36.78;101647.81;4991258;28;20039;-75
2021/04/13 08:36:06;;;;;;;13.02;6.68;;;;;;;23.00;36.46;101649.34;4979386;28;20054;-76
2021/04/13 08:38:49;;;;;;;8.32;4.82;;;;;;;23.20;36.66;101648.03;4979029;28;20039;-76
2021/04/13 08:41:27;;;;;;;8.32;4.15;;;;;;;23.26;36.80;101645.19;4981826;28;20050;-76
2021/04/13 08:44:01;;;;;;;4.70;2.30;;;;;;;23.24;36.30;101649.72;4984627;28;20026;-75
2021/04/13 08:46:42;;;;;;;4.30;2.67;;;;;;;23.16;36.15;101644.53;4980544;28;20058;-75
2021/04/13 08:49:17;;;;;;;4.63;2.28;;;;;;;23.20;35.81;101629.16;4983744;28;20117;-75
2021/04/13 08:51:47;;;;;;;9.52;3.72;;;;;;;23.21;36.05;101631.84;4982013;28;20097;-76
2021/04/13 08:54:33;;;;;;;4.60;2.28;;;;;;;23.27;35.64;101618.22;4978462;28;20062;-76
2021/04/13 08:57:03;;;;;;;8.50;3.35;;;;;;;23.40;35.21;101622.41;4985456;28;20110;-76
2021/04/13 08:59:37;;;;;;;8.95;3.75;;;;;;;23.44;34.73;101621.41;4985586;28;20192;-75
2021/04/13 09:02:13;;;;;;;6.30;2.50;;;;;;;23.58;34.66;101623.78;4989658;28;20079;-76
2021/04/13 09:04:40;;;;;;;10.13;5.22;;;;;;;23.56;35.27;101622.09;4987301;28;20046;-76
2021/04/13 09:07:12;;;;;;;13.25;5.97;;;;;;;23.60;35.73;101616.56;4976990;28;20757;-76
2021/04/13 09:09:48;;;;;;;9.13;4.53;;;;;;;23.61;35.55;101610.25;4990149;28;20066;-75
2021/04/13 09:12:40;;;;;;;9.50;4.45;;;;;;;23.39;35.60;101608.97;4970717;28;20126;-76
2021/04/13 09:15:24;;;;;;;5.78;3.35;;;;;;;23.54;36.03;101610.44;4972671;28;20085;-76
2021/04/13 09:18:01;;;;;;;4.97;2.28;;;;;;;23.71;34.70;101595.59;4985293;28;20042;-76
2021/04/13 09:20:41;;;;;;;4.90;2.65;;;;;;;23.49;34.89;101598.88;4983980;28;20045;-75
2021/04/13 09:23:22;;;;;;;6.88;3.83;;;;;;;23.60;34.21;101595.00;4977074;28;20504;-76
2021/04/13 09:26:05;;;;;;;4.40;2.53;;;;;;;23.67;33.78;101598.44;4979343;28;20034;-77
2021/04/13 09:28:51;;;;;;;5.40;2.80;;;;;;;23.69;33.03;101596.59;4981129;28;20030;-75
2021/04/13 09:31:22;;;;;;;6.60;3.13;;;;;;;23.82;33.27;101595.34;4981591;28;20050;-75
2021/04/13 09:33:49;;;;;;;7.28;3.97;;;;;;;23.90;33.16;101597.81;4984144;28;20125;-76
2021/04/13 09:36:35;;;;;;;3.40;2.08;;;;;;;23.97;32.76;101591.34;4979660;28;20081;-76
2021/04/13 09:39:44;;;;;;;6.10;3.60;;;;;;;24.01;33.12;101602.03;4984670;28;20089;-76
2021/04/13 09:42:53;;;;;;;5.43;2.22;;;;;;;24.05;32.29;101598.31;4967748;28;20030;-76
2021/04/13 09:45:26;;;;;;;4.75;2.08;;;;;;;24.08;31.62;101592.84;4989255;28;20042;-75
2021/04/13 09:48:07;;;;;;;5.78;3.20;;;;;;;24.21;30.72;101594.31;4988327;28;20518;-75
2021/04/13 09:50:44;;;;;;;2.58;1.60;;;;;;;24.34;30.52;101592.16;4985297;28;20141;-76
2021/04/13 09:53:44;;;;;;;5.95;2.65;;;;;;;24.37;31.41;101591.19;4982856;28;20047;-75
2021/04/13 09:56:47;;;;;;;3.42;1.70;;;;;;;24.30;32.69;101590.47;4985731;28;20046;-76
2021/04/13 09:59:42;;;;;;;4.00;1.70;;;;;;;24.20;31.79;101588.97;4953764;28;20045;-76
2021/04/13 10:02:20;;;;;;;6.10;2.33;;;;;;;24.10;31.37;101571.19;4978462;28;20074;-76
2021/04/13 10:04:55;;;;;;;6.00;2.05;;;;;;;24.39;31.14;101581.22;4976233;28;20043;-75
2021/04/13 10:07:30;;;;;;;3.83;2.22;;;;;;;24.80;30.34;101585.44;4972786;28;20038;-76
2021/04/13 10:09:59;;;;;;;3.53;2.03;;;;;;;25.05;29.74;101586.50;4985477;28;20051;-76
2021/04/13 10:12:48;;;;;;;6.10;2.00;;;;;;;25.22;29.70;101576.00;4987766;28;20053;-76
2021/04/13 10:16:03;;;;;;;3.80;2.28;;;;;;;25.24;30.10;101573.28;4987406;28;20046;-76
2021/04/13 10:19:15;;;;;;;4.07;2.22;;;;;;;25.00;30.12;101577.66;4926811;29;20452;-76
2021/04/13 10:22:19;;;;;;;5.60;2.30;;;;;;;25.23;30.34;101575.09;4968832;28;20062;-76
2021/04/13 10:25:17;;;;;;;5.53;2.90;;;;;;;25.59;32.00;101564.03;4919786;28;20047;-76
2021/04/13 10:28:06;;;;;;;5.65;2.55;;;;;;;25.69;32.90;101565.47;4981217;28;20049;-76
2021/04/13 10:31:21;;;;;;;6.53;3.83;;;;;;;25.77;32.95;101564.28;4988865;28;20620;-77
2021/04/13 10:34:32;;;;;;;57.45;27.83;;;;;;;25.66;33.10;101568.31;4896928;29;20522;-77
2021/04/13 10:37:41;;;;;;;8.35;2.65;;;;;;;25.31;33.21;101572.16;4966605;28;20081;-76
2021/04/13 10:40:32;;;;;;;9.93;4.43;;;;;;;24.96;33.66;101573.25;4969375;28;20196;-75
2021/04/13 10:43:22;;;;;;;5.10;1.98;;;;;;;24.95;33.65;101566.97;4986645;28;20117;-75
2021/04/13 10:46:25;;;;;;;5.40;2.83;;;;;;;24.81;34.12;101562.91;4968114;28;20115;-76
2021/04/13 10:49:32;;;;;;;31.15;21.00;;;;;;;24.82;33.89;101557.44;4982050;28;20050;-76
2021/04/13 10:52:27;;;;;;;7.38;3.60;;;;;;;24.69;34.27;101561.44;4986549;28;20077;-77
2021/04/13 10:55:18;;;;;;;22.92;11.90;;;;;;;24.65;34.27;101558.88;4970416;28;20081;-76
2021/04/13 10:58:21;;;;;;;12.65;6.13;;;;;;;24.81;34.28;101565.59;4984592;28;20065;-76
2021/04/13 11:01:30;;;;;;;19.58;10.68;;;;;;;24.93;34.19;101558.03;4976520;28;20125;-76
2021/04/13 11:04:42;;;;;;;7.28;5.07;;;;;;;25.02;35.00;101556.84;4982769;28;20121;-76
2021/04/13 11:07:46;;;;;;;5.65;2.60;;;;;;;24.98;34.92;101553.38;4960254;28;20130;-77
2021/04/13 11:10:45;;;;;;;11.77;6.75;;;;;;;24.98;35.17;101549.78;4968077;28;20568;-77
2021/04/13 11:13:51;;;;;;;6.22;3.63;;;;;;;25.13;35.14;101568.22;4973939;28;20045;-77
2021/04/13 11:16:46;;;;;;;7.53;3.30;;;;;;;25.34;35.35;101551.28;4987735;28;20060;-76
2021/04/13 11:19:24;;;;;;;5.57;2.75;;;;;;;25.49;35.45;101557.13;4987065;28;20039;-76
2021/04/13 11:22:24;;;;;;;4.25;2.22;;;;;;;25.70;35.18;101556.44;4987057;28;20053;-76
2021/04/13 11:25:29;;;;;;;5.10;3.28;;;;;;;25.78;35.50;101557.94;4937923;28;20042;-76
2021/04/13 11:28:37;;;;;;;3.43;2.30;;;;;;;25.83;35.95;101546.97;4982529;28;20496;-76
2021/04/13 11:31:41;;;;;;;7.68;2.63;;;;;;;25.82;36.09;101549.72;4980556;28;20634;-77
2021/04/13 11:34:45;;;;;;;5.32;2.60;;;;;;;25.96;36.09;101534.75;4980533;28;20074;-77
2021/04/13 11:37:35;;;;;;;4.70;2.42;;;;;;;25.84;35.93;101535.19;4969987;28;20072;-76
2021/04/13 11:40:26;;;;;;;4.63;2.25;;;;;;;25.79;36.47;101531.78;4980575;28;20042;-75
2021/04/13 11:42:56;;;;;;;4.82;2.65;;;;;;;25.85;36.26;101531.56;4980459;28;20719;-77
2021/04/13 11:45:52;;;;;;;21.52;13.93;;;;;;;26.07;36.60;101537.97;4979500;28;20085;-75
2021/04/13 11:48:30;;;;;;;9.85;7.82;;;;;;;26.28;35.88;101540.84;4973838;28;20073;-76
2021/04/13 11:51:04;;;;;;;5.50;2.28;;;;;;;26.28;35.49;101530.03;4982109;28;20039;-76
2021/04/13 11:53:34;;;;;;;10.95;4.65;;;;;;;26.26;35.40;101534.59;4984132;28;20042;-77
2021/04/13 11:56:03;;;;;;;8.57;3.88;;;;;;;26.32;34.98;101523.56;4964629;28;20117;-76
2021/04/13 11:58:33;;;;;;;5.00;3.08;;;;;;;26.41;35.16;101529.50;4983928;28;20042;-76
2021/04/13 12:01:35;;;;;;;4.97;1.55;;;;;;;26.45;34.31;101524.88;4987160;28;20138;-77
2021/04/13 12:04:07;;;;;;;8.00;4.22;;;;;;;26.46;34.51;101529.31;4990722;28;20061;-77
2021/04/13 12:07:09;;;;;;;6.05;2.70;;;;;;;26.54;33.65;101529.94;4984320;28;20052;-77
2021/04/13 12:09:48;;;;;;;7.68;3.88;;;;;;;26.42;33.66;101530.41;4934829;28;20055;-75
2021/04/13 12:12:50;;;;;;;7.03;3.40;;;;;;;26.21;33.36;101523.91;4934359;29;20043;-78